Hatche — TCA3423 — position and weather

sailwx.info

Track history (hours):
 
Tides and Currents Weather Stations Pressure Air Temp Water Temp Dewpoint Dewpoint Depression Visibility Wind Speed Wind Dir Waves Ship Positions

Hatche

Last reported at 2018-Jun-23 22:29 UTC. Time now 2018-Jun-23 23:45 UTC.
Position N 42°30' E 006°00'.

Length 193 m; draft 5.9 m.

Type: Ship (hazmat cat A). MMSI: 271044073.

Date/timePositionNaut miles runAvg speedWind from/ knotsBaromVisibWave heightAir tempDewpointWater temp
2018-Jun-23 22:29N 42°30' E 006°00'918.6
2018-Jun-23 22:00N 42°26' E 006°11'918.7
2018-Jun-23 21:30N 42°22' E 006°22'36519.5
2018-Jun-23 02:47N 39°31' E 013°29'619.7
2018-Jun-23 02:30N 39°28' E 013°35'1019.7
2018-Jun-23 02:00N 39°23' E 013°46'5219.7
2018-Jun-22 23:23N 38°57' E 014°43'919.6
2018-Jun-22 22:57N 38°53' E 014°52'919.9
2018-Jun-22 22:29N 38°48' E 015°03'919.9
2018-Jun-22 22:00N 38°43' E 015°13'1020.0
2018-Jun-22 21:30N 38°37' E 015°24'1020.0
2018-Jun-22 21:00N 38°31' E 015°34'1019.6
2018-Jun-22 20:30N 38°23' E 015°41'815.7
2018-Jun-22 20:00N 38°15' E 015°40'816.5
2018-Jun-22 19:30N 38°07' E 015°36'5 9.9
2018-Jun-22 18:59N 38°02' E 015°37'713.5
2018-Jun-22 18:28N 37°55' E 015°40'918.4
2018-Jun-22 18:00N 37°52' E 015°50'35819.3
2018-Jun-21 23:28N 36°25' E 023°06'2618.4
2018-Jun-21 22:02N 36°43' E 023°29'319.8
2018-Jun-21 21:54N 36°45' E 023°31'819.8
2018-Jun-21 21:31N 36°52' E 023°36'2219.9
2018-Jun-21 20:23N 37°11' E 023°50'819.9
2018-Jun-21 20:00N 37°17' E 023°56'1219.9
2018-Jun-21 19:24N 37°27' E 024°05'1019.6
2018-Jun-21 18:54N 37°35' E 024°12'64 1.5
2018-Jun-19 23:37N 37°55' E 025°28'219.2
2018-Jun-19 23:30N 37°54' E 025°27'1019.2
2018-Jun-19 23:00N 37°45' E 025°23'1019.1
2018-Jun-19 22:30N 37°36' E 025°19'918.3
2018-Jun-19 22:00N 37°28' E 025°12'1018.9
2018-Jun-19 21:30N 37°23' E 025°02'919.1
2018-Jun-19 21:01N 37°17' E 024°53'42218.7
2018-Jun-18 22:23N 37°48' E 016°02'719.9
2018-Jun-18 22:01N 37°50' E 015°53'1019.4
2018-Jun-18 21:30N 37°53' E 015°41'1018.2
2018-Jun-18 20:57N 38°02' E 015°35'920.6
2018-Jun-18 20:31N 38°11' E 015°36'916.1
2018-Jun-18 19:58N 38°18' E 015°41'612.9
2018-Jun-18 19:30N 38°23' E 015°36'611.8
2018-Jun-18 19:00N 38°26' E 015°30'1019.2
2018-Jun-18 18:27N 38°33' E 015°19'919.9
2018-Jun-18 18:00N 38°40' E 015°12'27420.2
2018-Jun-18 04:25N 41°02' E 010°07'19519.5
2018-Jun-17 18:25N 42°08' E 006°01'820.2
2018-Jun-17 18:00N 42°13' E 005°52'9120.3
2018-Jun-17 13:30N 43°07' E 004°12'1020.4
2018-Jun-17 13:00N 43°12' E 004°00'1020.2
2018-Jun-17 12:30N 43°19' E 003°49'714.6
2018-Jun-17 12:00N 43°24' E 003°43'0 0.0
2018-Jun-17 06:17N 43°24' E 003°43'1 3.6
2018-Jun-17 06:00N 43°24' E 003°44'4 8.0
2018-Jun-17 05:30N 43°22' E 003°48'5 9.9
2018-Jun-17 05:00N 43°18' E 003°53'714.1
2018-Jun-17 04:30N 43°14' E 004°01'7014.3
2018-Jun-16 23:36N 42°43' E 005°27'514.6
2018-Jun-16 23:15N 42°40' E 005°33'614.6
2018-Jun-16 22:49N 42°37' E 005°41'714.5
2018-Jun-16 22:18N 42°34' E 005°50'414.4
2018-Jun-16 22:00N 42°32' E 005°55'714.5
2018-Jun-16 21:30N 42°29' E 006°04'917.5
2018-Jun-16 21:00N 42°25' E 006°14'1219.9
2018-Jun-16 20:24N 42°19' E 006°29'820.4
2018-Jun-16 20:00N 42°16' E 006°38'42619.5
2018-Jun-15 22:08N 38°53' E 014°52'320.3
2018-Jun-15 22:00N 38°51' E 014°55'1020.4
2018-Jun-15 21:30N 38°46' E 015°06'1020.4
2018-Jun-15 21:00N 38°39' E 015°16'1120.1
2018-Jun-15 20:28N 38°32' E 015°26'919.9
2018-Jun-15 19:59N 38°25' E 015°35'919.0
2018-Jun-15 19:30N 38°19' E 015°43'918.2
2018-Jun-15 19:00N 38°11' E 015°37'1219.5
2018-Jun-15 18:24N 37°59' E 015°36'819.7
2018-Jun-15 18:00N 37°54' E 015°43'1020.2
2018-Jun-15 17:30N 37°51' E 015°55'35519.4
2018-Jun-14 23:12N 36°25' E 023°07'419.2
2018-Jun-14 23:00N 36°25' E 023°12'1020.0
2018-Jun-14 22:30N 36°33' E 023°20'2519.9
2018-Jun-14 21:14N 36°54' E 023°37'  
Track history (hours):
 
Tides and Currents Weather Stations Pressure Air Temp Water Temp Dewpoint Dewpoint Depression Visibility Wind Speed Wind Dir Waves Ship Positions

Hatche

Last reported at 2018-Jun-23 22:29 UTC. Time now 2018-Jun-23 23:45 UTC.
Position N 42°30' E 006°00'.

Length 193 m; draft 5.9 m.

Type: Ship (hazmat cat A). MMSI: 271044073.

Date/timePositionNaut miles runAvg speedWind from/ knotsBaromVisibWave heightAir tempDewpointWater temp
2018-Jun-23 22:29N 42°30' E 006°00'918.6
2018-Jun-23 22:00N 42°26' E 006°11'918.7
2018-Jun-23 21:30N 42°22' E 006°22'36519.5
2018-Jun-23 02:47N 39°31' E 013°29'619.7
2018-Jun-23 02:30N 39°28' E 013°35'1019.7
2018-Jun-23 02:00N 39°23' E 013°46'5219.7
2018-Jun-22 23:23N 38°57' E 014°43'919.6
2018-Jun-22 22:57N 38°53' E 014°52'919.9
2018-Jun-22 22:29N 38°48' E 015°03'919.9
2018-Jun-22 22:00N 38°43' E 015°13'1020.0
2018-Jun-22 21:30N 38°37' E 015°24'1020.0
2018-Jun-22 21:00N 38°31' E 015°34'1019.6
2018-Jun-22 20:30N 38°23' E 015°41'815.7
2018-Jun-22 20:00N 38°15' E 015°40'816.5
2018-Jun-22 19:30N 38°07' E 015°36'5 9.9
2018-Jun-22 18:59N 38°02' E 015°37'713.5
2018-Jun-22 18:28N 37°55' E 015°40'918.4
2018-Jun-22 18:00N 37°52' E 015°50'35819.3
2018-Jun-21 23:28N 36°25' E 023°06'2618.4
2018-Jun-21 22:02N 36°43' E 023°29'319.8
2018-Jun-21 21:54N 36°45' E 023°31'819.8
2018-Jun-21 21:31N 36°52' E 023°36'2219.9
2018-Jun-21 20:23N 37°11' E 023°50'819.9
2018-Jun-21 20:00N 37°17' E 023°56'1219.9
2018-Jun-21 19:24N 37°27' E 024°05'1019.6
2018-Jun-21 18:54N 37°35' E 024°12'64 1.5
2018-Jun-19 23:37N 37°55' E 025°28'219.2
2018-Jun-19 23:30N 37°54' E 025°27'1019.2
2018-Jun-19 23:00N 37°45' E 025°23'1019.1
2018-Jun-19 22:30N 37°36' E 025°19'918.3
2018-Jun-19 22:00N 37°28' E 025°12'1018.9
2018-Jun-19 21:30N 37°23' E 025°02'919.1
2018-Jun-19 21:01N 37°17' E 024°53'42218.7
2018-Jun-18 22:23N 37°48' E 016°02'719.9
2018-Jun-18 22:01N 37°50' E 015°53'1019.4
2018-Jun-18 21:30N 37°53' E 015°41'1018.2
2018-Jun-18 20:57N 38°02' E 015°35'920.6
2018-Jun-18 20:31N 38°11' E 015°36'916.1
2018-Jun-18 19:58N 38°18' E 015°41'612.9
2018-Jun-18 19:30N 38°23' E 015°36'611.8
2018-Jun-18 19:00N 38°26' E 015°30'1019.2
2018-Jun-18 18:27N 38°33' E 015°19'919.9
2018-Jun-18 18:00N 38°40' E 015°12'27420.2
2018-Jun-18 04:25N 41°02' E 010°07'19519.5
2018-Jun-17 18:25N 42°08' E 006°01'820.2
2018-Jun-17 18:00N 42°13' E 005°52'9120.3
2018-Jun-17 13:30N 43°07' E 004°12'1020.4
2018-Jun-17 13:00N 43°12' E 004°00'1020.2
2018-Jun-17 12:30N 43°19' E 003°49'714.6
2018-Jun-17 12:00N 43°24' E 003°43'0 0.0
2018-Jun-17 06:17N 43°24' E 003°43'1 3.6
2018-Jun-17 06:00N 43°24' E 003°44'4 8.0
2018-Jun-17 05:30N 43°22' E 003°48'5 9.9
2018-Jun-17 05:00N 43°18' E 003°53'714.1
2018-Jun-17 04:30N 43°14' E 004°01'7014.3
2018-Jun-16 23:36N 42°43' E 005°27'514.6
2018-Jun-16 23:15N 42°40' E 005°33'614.6
2018-Jun-16 22:49N 42°37' E 005°41'714.5
2018-Jun-16 22:18N 42°34' E 005°50'414.4
2018-Jun-16 22:00N 42°32' E 005°55'714.5
2018-Jun-16 21:30N 42°29' E 006°04'917.5
2018-Jun-16 21:00N 42°25' E 006°14'1219.9
2018-Jun-16 20:24N 42°19' E 006°29'820.4
2018-Jun-16 20:00N 42°16' E 006°38'42619.5
2018-Jun-15 22:08N 38°53' E 014°52'320.3
2018-Jun-15 22:00N 38°51' E 014°55'1020.4
2018-Jun-15 21:30N 38°46' E 015°06'1020.4
2018-Jun-15 21:00N 38°39' E 015°16'1120.1
2018-Jun-15 20:28N 38°32' E 015°26'919.9
2018-Jun-15 19:59N 38°25' E 015°35'919.0
2018-Jun-15 19:30N 38°19' E 015°43'918.2
2018-Jun-15 19:00N 38°11' E 015°37'1219.5
2018-Jun-15 18:24N 37°59' E 015°36'819.7
2018-Jun-15 18:00N 37°54' E 015°43'1020.2
2018-Jun-15 17:30N 37°51' E 015°55'35519.4
2018-Jun-14 23:12N 36°25' E 023°07'419.2
2018-Jun-14 23:00N 36°25' E 023°12'1020.0
2018-Jun-14 22:30N 36°33' E 023°20'2519.9
2018-Jun-14 21:14N 36°54' E 023°37'  

Dump ship's entire track history